createdAt,value
2018-12-01T00:00:06.428Z,22.27
2018-12-01T00:02:35.655Z,18.03
2018-12-01T00:05:03.040Z,18.70
2018-12-01T00:07:31.674Z,19.57
2018-12-01T00:09:59.220Z,19.53
2018-12-01T00:12:27.030Z,20.17
2018-12-01T00:14:54.601Z,14.80
2018-12-01T00:17:23.194Z,21.17
2018-12-01T00:19:50.745Z,15.63
2018-12-01T00:22:18.251Z,16.77
2018-12-01T00:24:45.859Z,19.73
2018-12-01T00:27:13.401Z,12.87
2018-12-01T00:29:41.038Z,13.10
2018-12-01T00:32:08.634Z,15.57
2018-12-01T00:34:36.647Z,14.47
2018-12-01T00:37:06.599Z,20.13
2018-12-01T00:39:34.256Z,15.97
2018-12-01T00:42:01.950Z,18.97
2018-12-01T00:44:29.611Z,17.93
2018-12-01T00:46:57.172Z,22.27
2018-12-01T00:49:24.797Z,16.13
2018-12-01T00:51:52.312Z,18.37
2018-12-01T00:54:19.837Z,14.70
2018-12-01T00:56:47.397Z,19.27
2018-12-01T00:59:15.739Z,22.70
2018-12-01T01:01:43.355Z,17.83
2018-12-01T01:04:10.945Z,19.43
2018-12-01T01:06:38.402Z,16.97
2018-12-01T01:09:06.680Z,19.73
2018-12-01T01:11:34.336Z,17.40
2018-12-01T01:14:02.027Z,16.60
2018-12-01T01:16:29.602Z,17.63
2018-12-01T01:18:57.226Z,15.97
2018-12-01T01:21:24.812Z,17.33
2018-12-01T01:23:52.324Z,17.13
2018-12-01T01:26:19.898Z,17.83
2018-12-01T01:28:47.413Z,15.67
2018-12-01T01:31:14.885Z,14.93
2018-12-01T01:33:42.493Z,13.50
2018-12-01T01:36:11.041Z,16.07
2018-12-01T01:38:38.625Z,13.23
2018-12-01T01:41:07.230Z,16.23
2018-12-01T01:43:35.328Z,22.80
2018-12-01T01:46:03.830Z,15.60
2018-12-01T01:48:32.165Z,19.20
2018-12-01T01:50:59.759Z,19.20
2018-12-01T01:53:28.002Z,11.67
2018-12-01T01:55:55.845Z,9.77
2018-12-01T01:58:23.438Z,15.13
2018-12-01T02:00:51.093Z,15.83
2018-12-01T02:03:19.380Z,19.73
2018-12-01T02:05:46.991Z,15.03
2018-12-01T02:08:15.270Z,17.30
2018-12-01T02:10:42.894Z,15.70
2018-12-01T02:13:10.458Z,17.80
2018-12-01T02:15:38.084Z,12.60
2018-12-01T02:18:05.994Z,17.67
2018-12-01T02:20:33.652Z,14.70
2018-12-01T02:23:01.257Z,17.07
2018-12-01T02:25:29.550Z,14.60
2018-12-01T02:27:57.040Z,17.90
2018-12-01T02:30:24.586Z,18.53
2018-12-01T02:32:58.723Z,17.60
2018-12-01T02:35:26.974Z,15.67
2018-12-01T02:37:55.087Z,16.87
2018-12-01T02:40:22.069Z,14.03
2018-12-01T02:42:49.649Z,13.50
2018-12-01T02:45:22.706Z,15.40
2018-12-01T02:47:50.190Z,12.53
2018-12-01T02:50:23.354Z,10.93
2018-12-01T02:52:50.848Z,16.07
2018-12-01T02:55:18.407Z,18.37
2018-12-01T02:57:46.030Z,14.63
2018-12-01T03:00:13.606Z,17.73
2018-12-01T03:02:41.080Z,18.53
2018-12-01T03:05:10.665Z,23.20
2018-12-01T03:07:38.240Z,25.63
2018-12-01T03:10:09.365Z,18.93
2018-12-01T03:12:37.121Z,22.40
2018-12-01T03:15:06.524Z,27.40
2018-12-01T03:17:35.945Z,26.67
2018-12-01T03:20:08.441Z,19.77
2018-12-01T03:22:35.983Z,19.73
2018-12-01T03:25:08.365Z,21.63
2018-12-01T03:27:36.650Z,18.70
2018-12-01T03:30:10.562Z,22.07
2018-12-01T03:32:39.292Z,17.73
2018-12-01T03:35:12.155Z,16.27
2018-12-01T03:37:40.889Z,17.43
2018-12-01T03:40:08.495Z,14.90
2018-12-01T03:42:35.947Z,14.30
2018-12-01T03:45:03.729Z,15.07
2018-12-01T03:47:31.290Z,13.33
2018-12-01T03:49:58.932Z,12.80
2018-12-01T03:52:26.865Z,13.80
2018-12-01T03:54:54.445Z,13.97
2018-12-01T03:57:22.087Z,19.53
2018-12-01T03:59:49.571Z,13.50
2018-12-01T04:02:17.278Z,10.87
2018-12-01T04:04:44.866Z,16.97
2018-12-01T04:07:12.639Z,13.93
2018-12-01T04:09:46.861Z,18.90
2018-12-01T04:12:14.478Z,12.97
2018-12-01T04:14:42.257Z,13.77
2018-12-01T04:17:10.129Z,10.40
2018-12-01T04:19:38.378Z,12.60
2018-12-01T04:22:06.165Z,16.10
2018-12-01T04:24:33.839Z,12.27
2018-12-01T04:27:02.107Z,15.30
2018-12-01T04:29:29.672Z,13.97
2018-12-01T04:31:57.236Z,13.03
2018-12-01T04:34:25.234Z,11.93
2018-12-01T04:36:54.345Z,10.63
2018-12-01T04:39:22.473Z,15.27
2018-12-01T04:41:54.334Z,11.50
2018-12-01T04:44:21.901Z,10.47
2018-12-01T04:46:49.502Z,10.37
2018-12-01T04:49:17.109Z,15.73
2018-12-01T04:51:46.250Z,16.63
2018-12-01T04:54:13.739Z,14.23
2018-12-01T04:56:41.432Z,16.73
2018-12-01T04:59:09.364Z,10.90
2018-12-01T05:01:36.828Z,11.90
2018-12-01T05:04:04.625Z,11.73
2018-12-01T05:06:32.227Z,15.77
2018-12-01T05:09:02.362Z,14.20
2018-12-01T05:11:34.106Z,13.77
2018-12-01T05:14:01.711Z,15.83
2018-12-01T05:16:30.256Z,14.60
2018-12-01T05:18:57.722Z,15.03
2018-12-01T05:21:25.436Z,17.53
2018-12-01T05:23:53.036Z,10.47
2018-12-01T05:26:21.181Z,15.50
2018-12-01T05:28:48.785Z,10.83
2018-12-01T05:31:16.825Z,10.23
2018-12-01T05:33:44.427Z,12.57
2018-12-01T05:36:12.550Z,13.17
2018-12-01T05:38:40.151Z,12.80
2018-12-01T05:41:07.741Z,15.87
2018-12-01T05:43:35.269Z,13.93
2018-12-01T05:46:02.807Z,17.47
2018-12-01T05:48:30.346Z,16.20
2018-12-01T05:50:57.958Z,16.43
2018-12-01T05:53:25.488Z,20.00
2018-12-01T05:55:53.179Z,21.37
2018-12-01T05:58:20.871Z,18.30
2018-12-01T06:00:48.326Z,19.80
2018-12-01T06:03:15.924Z,15.90
2018-12-01T06:05:48.132Z,14.87
2018-12-01T06:08:16.154Z,16.70
2018-12-01T06:10:47.930Z,14.47
2018-12-01T06:13:15.522Z,18.67
2018-12-01T06:15:43.150Z,8.60
2018-12-01T06:18:10.868Z,9.20
2018-12-01T06:20:38.385Z,18.10
2018-12-01T06:23:06.903Z,11.23
2018-12-01T06:25:35.385Z,12.90
2018-12-01T06:28:02.885Z,9.53
2018-12-01T06:30:30.399Z,16.50
2018-12-01T06:32:57.825Z,14.33
2018-12-01T06:35:26.408Z,15.30
2018-12-01T06:37:53.871Z,11.40
2018-12-01T06:40:21.503Z,15.70
2018-12-01T06:42:49.028Z,14.33
2018-12-01T06:45:16.635Z,14.70
2018-12-01T06:47:44.214Z,16.63
2018-12-01T06:50:12.317Z,15.97
2018-12-01T06:52:39.871Z,16.57
2018-12-01T06:55:08.197Z,20.43
2018-12-01T06:57:35.743Z,14.10
2018-12-01T07:00:03.306Z,18.10
2018-12-01T07:02:30.781Z,17.83
2018-12-01T07:04:58.297Z,17.73
2018-12-01T07:07:28.757Z,20.27
2018-12-01T07:10:01.735Z,21.47
2018-12-01T07:12:29.223Z,18.63
2018-12-01T07:14:56.758Z,17.37
2018-12-01T07:17:24.389Z,17.47
2018-12-01T07:19:51.999Z,21.93
2018-12-01T07:22:19.468Z,17.17
2018-12-01T07:24:47.588Z,22.93
2018-12-01T07:27:15.086Z,23.17
2018-12-01T07:29:42.545Z,28.03
2018-12-01T07:32:10.051Z,18.40
2018-12-01T07:34:38.116Z,18.37
2018-12-01T07:37:06.355Z,21.07
2018-12-01T07:39:33.879Z,16.27
2018-12-01T07:42:01.527Z,16.00
2018-12-01T07:44:29.483Z,15.17
2018-12-01T07:46:57.075Z,16.30
2018-12-01T07:49:25.523Z,14.33
2018-12-01T07:51:52.950Z,14.37
2018-12-01T07:54:20.374Z,16.27
2018-12-01T07:56:47.879Z,15.67
2018-12-01T07:59:15.391Z,21.10
2018-12-01T08:01:42.863Z,12.63
2018-12-01T08:04:10.483Z,18.10
2018-12-01T08:06:37.921Z,17.03
2018-12-01T08:09:06.842Z,19.30
2018-12-01T08:11:34.343Z,20.30
2018-12-01T08:14:01.915Z,16.40
2018-12-01T08:16:30.299Z,18.50
2018-12-01T08:18:57.715Z,16.70
2018-12-01T08:21:25.312Z,11.63
2018-12-01T08:23:52.718Z,17.57
2018-12-01T08:26:20.221Z,15.13
2018-12-01T08:28:48.248Z,16.23
2018-12-01T08:31:15.704Z,13.10
2018-12-01T08:33:43.463Z,13.60
2018-12-01T08:36:10.933Z,14.07
2018-12-01T08:38:38.382Z,13.27
2018-12-01T08:41:05.946Z,14.63
2018-12-01T08:43:33.430Z,19.63
2018-12-01T08:46:01.012Z,17.10
2018-12-01T08:48:28.486Z,14.10
2018-12-01T08:50:58.213Z,12.57
2018-12-01T08:53:25.778Z,16.27
2018-12-01T08:55:53.205Z,13.73
2018-12-01T08:58:20.655Z,17.73
2018-12-01T09:00:48.880Z,15.20
2018-12-01T09:03:17.217Z,15.50
2018-12-01T09:05:44.771Z,19.77
2018-12-01T09:08:12.213Z,13.93
2018-12-01T09:10:39.640Z,16.43
2018-12-01T09:13:07.068Z,14.57
2018-12-01T09:15:36.847Z,13.80
2018-12-01T09:18:01.980Z,14.20
2018-12-01T09:20:29.437Z,13.53
2018-12-01T09:22:56.938Z,14.73
2018-12-01T09:25:25.075Z,13.73
2018-12-01T09:27:52.510Z,10.70
2018-12-01T09:30:21.110Z,12.67
2018-12-01T09:32:48.702Z,11.73
2018-12-01T09:35:16.242Z,12.10
2018-12-01T09:37:43.798Z,11.90
2018-12-01T09:40:13.034Z,12.67
2018-12-01T09:42:40.604Z,14.03
2018-12-01T09:45:08.835Z,15.60
2018-12-01T09:47:36.332Z,11.60
2018-12-01T09:50:05.973Z,15.63
2018-12-01T09:52:33.414Z,13.90
2018-12-01T09:55:00.828Z,12.57
2018-12-01T09:57:28.327Z,9.67
2018-12-01T09:59:55.790Z,13.77
2018-12-01T10:02:23.484Z,13.07
2018-12-01T10:04:51.061Z,13.27
2018-12-01T10:07:25.592Z,12.13
2018-12-01T10:09:55.947Z,15.07
2018-12-01T10:12:23.985Z,14.37
2018-12-01T10:14:51.748Z,17.97
2018-12-01T10:17:19.294Z,11.60
2018-12-01T10:19:47.248Z,13.33
2018-12-01T10:22:15.040Z,10.53
2018-12-01T10:24:42.522Z,10.43
2018-12-01T10:27:10.016Z,16.07
2018-12-01T10:29:37.586Z,13.90
2018-12-01T10:32:05.089Z,9.50
2018-12-01T10:34:32.592Z,14.70
2018-12-01T10:37:00.046Z,12.50
2018-12-01T10:39:27.653Z,16.83
2018-12-01T10:41:56.289Z,18.03
2018-12-01T10:44:23.878Z,12.87
2018-12-01T10:46:51.329Z,14.00
2018-12-01T10:49:18.789Z,17.10
2018-12-01T10:51:46.208Z,13.57
2018-12-01T10:54:13.778Z,11.83
2018-12-01T10:56:41.267Z,13.83
2018-12-01T10:59:08.844Z,13.63
2018-12-01T11:01:40.681Z,18.20
2018-12-01T11:04:13.396Z,14.33
2018-12-01T11:06:40.941Z,20.10
2018-12-01T11:09:08.819Z,14.30
2018-12-01T11:11:36.370Z,11.67
2018-12-01T11:14:03.791Z,15.37
2018-12-01T11:16:31.333Z,12.53
2018-12-01T11:18:58.785Z,14.60
2018-12-01T11:21:26.221Z,15.27
2018-12-01T11:23:53.976Z,15.87
2018-12-01T11:26:21.750Z,15.73
2018-12-01T11:28:49.297Z,15.57
2018-12-01T11:31:17.225Z,16.63
2018-12-01T11:33:44.836Z,12.90
2018-12-01T11:36:12.389Z,14.43
2018-12-01T11:38:40.015Z,14.90
2018-12-01T11:41:08.043Z,12.67
2018-12-01T11:43:35.712Z,13.67
2018-12-01T11:46:03.436Z,13.43
2018-12-01T11:48:30.982Z,17.10
2018-12-01T11:50:58.602Z,12.13
2018-12-01T11:53:26.183Z,14.53
2018-12-01T11:55:54.443Z,18.43
2018-12-01T11:58:21.996Z,13.87
2018-12-01T12:00:49.584Z,11.60
2018-12-01T12:03:17.509Z,16.00
2018-12-01T12:05:46.050Z,13.60
2018-12-01T12:08:16.914Z,12.93
2018-12-01T12:10:44.469Z,15.17
2018-12-01T12:13:11.963Z,13.07
2018-12-01T12:15:40.337Z,15.10
2018-12-01T12:18:08.646Z,17.37
2018-12-01T12:20:36.283Z,14.90
2018-12-01T12:23:05.285Z,12.10
2018-12-01T12:25:32.967Z,11.83
2018-12-01T12:28:00.830Z,14.40
2018-12-01T12:30:28.659Z,14.43
2018-12-01T12:32:56.335Z,14.57
2018-12-01T12:35:24.170Z,12.60
2018-12-01T12:37:51.976Z,11.63
2018-12-01T12:40:21.471Z,14.83
2018-12-01T12:42:49.247Z,15.17
2018-12-01T12:45:16.855Z,20.77
2018-12-01T12:47:44.402Z,19.00
2018-12-01T12:50:13.604Z,21.00
2018-12-01T12:52:41.931Z,21.73
2018-12-01T12:55:10.493Z,21.13
2018-12-01T12:57:38.190Z,20.60
2018-12-01T13:00:08.038Z,18.73
2018-12-01T13:02:36.098Z,16.97
2018-12-01T13:05:03.869Z,13.17
2018-12-01T13:07:31.448Z,16.03
2018-12-01T13:09:59.022Z,16.27
2018-12-01T13:12:26.997Z,18.60
2018-12-01T13:14:54.852Z,18.33
2018-12-01T13:17:22.720Z,19.53
2018-12-01T13:19:50.641Z,20.87
2018-12-01T13:22:18.601Z,22.83
2018-12-01T13:24:46.382Z,20.37
2018-12-01T13:27:13.964Z,20.50
2018-12-01T13:29:41.897Z,17.00
2018-12-01T13:32:09.970Z,20.77
2018-12-01T13:34:37.916Z,15.17
2018-12-01T13:37:06.620Z,17.20
2018-12-01T13:39:34.119Z,16.63
2018-12-01T13:42:01.696Z,17.37
2018-12-01T13:44:29.398Z,15.53
2018-12-01T13:46:57.024Z,12.57
2018-12-01T13:49:24.519Z,15.27
2018-12-01T13:51:52.181Z,17.47
2018-12-01T13:54:20.560Z,13.37
2018-12-01T13:56:48.193Z,10.43
2018-12-01T13:59:15.757Z,13.73
2018-12-01T14:01:43.887Z,10.17
2018-12-01T14:04:11.996Z,12.13
2018-12-01T14:06:40.389Z,17.30
2018-12-01T14:09:09.741Z,15.73
2018-12-01T14:11:37.290Z,16.70
2018-12-01T14:14:04.806Z,14.23
2018-12-01T14:16:36.938Z,15.57
2018-12-01T14:19:05.037Z,12.00
2018-12-01T14:21:34.012Z,16.07
2018-12-01T14:24:01.608Z,13.40
2018-12-01T14:26:29.132Z,15.80
2018-12-01T14:28:59.103Z,17.93
2018-12-01T14:31:26.752Z,16.23
2018-12-01T14:33:55.526Z,14.83
2018-12-01T14:36:23.426Z,11.03
2018-12-01T14:38:51.128Z,16.17
2018-12-01T14:41:18.685Z,16.23
2018-12-01T14:43:46.311Z,15.87
2018-12-01T14:46:13.937Z,13.70
2018-12-01T14:48:41.562Z,15.20
2018-12-01T14:51:09.614Z,14.03
2018-12-01T14:53:41.779Z,16.67
2018-12-01T14:56:09.749Z,15.30
2018-12-01T14:58:42.281Z,12.23
2018-12-01T15:01:05.466Z,13.63
2018-12-01T15:03:33.286Z,13.93
2018-12-01T15:06:01.342Z,15.87
2018-12-01T15:08:28.985Z,18.43
2018-12-01T15:10:56.900Z,13.73
2018-12-01T15:13:25.739Z,13.53
2018-12-01T15:15:53.308Z,14.93
2018-12-01T15:18:21.141Z,13.83
2018-12-01T15:20:49.468Z,15.43
2018-12-01T15:23:17.227Z,18.20
2018-12-01T15:25:44.983Z,16.50
2018-12-01T15:28:13.191Z,18.00
2018-12-01T15:30:41.801Z,16.83
2018-12-01T15:33:13.367Z,15.67
2018-12-01T15:35:41.714Z,15.03
2018-12-01T15:38:10.652Z,12.87
2018-12-01T15:40:39.271Z,15.37
2018-12-01T15:43:07.170Z,14.50
2018-12-01T15:45:35.469Z,12.63
2018-12-01T15:48:03.325Z,14.80
2018-12-01T15:50:30.989Z,15.30
2018-12-01T15:52:59.067Z,15.47
2018-12-01T15:55:26.623Z,13.87
2018-12-01T15:57:54.402Z,12.10
2018-12-01T16:00:23.276Z,13.20
2018-12-01T16:02:51.627Z,12.50
2018-12-01T16:05:19.629Z,11.80
2018-12-01T16:07:47.548Z,11.60
2018-12-01T16:10:15.730Z,10.60
2018-12-01T16:12:43.663Z,10.83
2018-12-01T16:15:13.919Z,11.03
2018-12-01T16:17:41.733Z,11.03
2018-12-01T16:20:12.262Z,12.40
2018-12-01T16:22:39.739Z,11.57
2018-12-01T16:25:08.419Z,10.73
2018-12-01T16:27:35.964Z,11.03
2018-12-01T16:30:04.064Z,10.17
2018-12-01T16:32:32.426Z,10.80
2018-12-01T16:34:59.942Z,10.13
2018-12-01T16:37:27.459Z,12.50
2018-12-01T16:39:55.161Z,11.00
2018-12-01T16:42:22.686Z,11.27
2018-12-01T16:44:50.397Z,14.37
2018-12-01T16:47:17.891Z,11.50
2018-12-01T16:49:45.521Z,12.47
2018-12-01T16:52:13.061Z,11.97
2018-12-01T16:54:40.603Z,15.00
2018-12-01T16:57:08.047Z,13.67
2018-12-01T16:59:36.196Z,14.27
2018-12-01T17:02:03.648Z,15.93
2018-12-01T17:04:31.120Z,11.43
2018-12-01T17:06:58.546Z,14.27
2018-12-01T17:09:26.004Z,13.00
2018-12-01T17:11:54.200Z,12.13
2018-12-01T17:14:21.707Z,10.73
2018-12-01T17:16:49.344Z,14.03
2018-12-01T17:19:16.808Z,12.13
2018-12-01T17:21:44.252Z,11.30
2018-12-01T17:24:11.675Z,10.63
2018-12-01T17:26:39.151Z,12.90
2018-12-01T17:29:06.834Z,12.03
2018-12-01T17:31:34.292Z,10.37
2018-12-01T17:34:01.832Z,10.17
2018-12-01T17:36:29.361Z,9.13
2018-12-01T17:38:57.549Z,11.87
2018-12-01T17:41:26.378Z,8.47
2018-12-01T17:44:09.324Z,11.43
2018-12-01T17:46:36.841Z,10.03
2018-12-01T17:49:04.460Z,9.20
2018-12-01T17:51:31.939Z,8.17
2018-12-01T17:54:03.590Z,7.90
2018-12-01T17:56:31.155Z,8.23
2018-12-01T17:58:58.748Z,8.00
2018-12-01T18:01:26.287Z,7.67
2018-12-01T18:03:53.704Z,8.30
2018-12-01T18:06:21.118Z,9.67
2018-12-01T18:08:48.593Z,8.47
2018-12-01T18:11:16.263Z,9.80
2018-12-01T18:13:43.948Z,10.10
2018-12-01T18:16:11.433Z,10.63
2018-12-01T18:18:38.957Z,9.77
2018-12-01T18:21:06.411Z,9.67
2018-12-01T18:23:33.961Z,9.93
2018-12-01T18:26:01.612Z,8.80
2018-12-01T18:28:37.807Z,9.57
2018-12-01T18:31:06.855Z,11.33
2018-12-01T18:33:35.412Z,9.00
2018-12-01T18:36:03.180Z,8.83
2018-12-01T18:38:31.565Z,8.90
2018-12-01T18:40:59.247Z,9.13
2018-12-01T18:43:26.860Z,7.83
2018-12-01T18:45:55.422Z,7.90
2018-12-01T18:48:22.993Z,8.50
2018-12-01T18:50:50.638Z,9.27
2018-12-01T18:53:18.301Z,9.80
2018-12-01T18:55:47.664Z,9.73
2018-12-01T18:58:15.255Z,9.87
2018-12-01T19:00:43.378Z,9.70
2018-12-01T19:03:10.972Z,8.37
2018-12-01T19:05:38.500Z,8.70
2018-12-01T19:08:06.022Z,9.50
2018-12-01T19:10:33.659Z,9.77
2018-12-01T19:13:01.185Z,8.83
2018-12-01T19:15:28.702Z,9.43
2018-12-01T19:17:56.183Z,11.03
2018-12-01T19:20:23.750Z,11.70
2018-12-01T19:22:52.076Z,11.63
2018-12-01T19:25:20.236Z,12.40
2018-12-01T19:27:48.504Z,12.33
2018-12-01T19:30:16.668Z,11.93
2018-12-01T19:32:44.818Z,13.40
2018-12-01T19:35:13.806Z,13.40
2018-12-01T19:37:41.433Z,13.87
2018-12-01T19:40:11.012Z,12.97
2018-12-01T19:42:38.705Z,14.43
2018-12-01T19:45:06.327Z,12.40
2018-12-01T19:47:33.786Z,12.23
2018-12-01T19:50:01.277Z,12.13
2018-12-01T19:52:28.805Z,11.47
2018-12-01T19:54:56.793Z,10.70
2018-12-01T19:57:24.275Z,9.87
2018-12-01T19:59:51.714Z,10.67
2018-12-01T20:02:19.618Z,10.83
2018-12-01T20:04:47.181Z,9.50
2018-12-01T20:07:14.876Z,10.23
2018-12-01T20:09:42.362Z,9.40
2018-12-01T20:12:09.942Z,10.57
2018-12-01T20:14:37.468Z,9.37
2018-12-01T20:17:06.164Z,10.33
2018-12-01T20:19:33.667Z,10.67
2018-12-01T20:22:01.360Z,10.00
2018-12-01T20:24:28.948Z,10.87
2018-12-01T20:26:57.269Z,10.53
2018-12-01T20:29:25.661Z,11.47
2018-12-01T20:31:53.788Z,10.70
2018-12-01T20:34:23.310Z,12.23
2018-12-01T20:36:52.560Z,11.03
2018-12-01T20:39:28.754Z,11.27
2018-12-01T20:41:57.827Z,11.23
2018-12-01T20:44:25.454Z,12.63
2018-12-01T20:46:53.090Z,11.53
2018-12-01T20:49:20.591Z,11.17
2018-12-01T20:51:48.252Z,11.80
2018-12-01T20:54:23.842Z,12.07
2018-12-01T20:56:52.460Z,11.97
2018-12-01T20:59:19.968Z,14.07
2018-12-01T21:01:47.493Z,14.60
2018-12-01T21:04:14.978Z,14.37
2018-12-01T21:06:42.531Z,14.17
2018-12-01T21:09:10.347Z,17.53
2018-12-01T21:11:38.708Z,13.90
2018-12-01T21:14:06.335Z,14.10
2018-12-01T21:16:33.928Z,14.70
2018-12-01T21:19:01.496Z,16.23
2018-12-01T21:21:29.165Z,13.67
2018-12-01T21:23:58.289Z,15.10
2018-12-01T21:26:25.979Z,13.03
2018-12-01T21:28:54.085Z,13.27
2018-12-01T21:31:21.731Z,14.20
2018-12-01T21:33:49.429Z,12.87
2018-12-01T21:36:17.609Z,12.43
2018-12-01T21:38:45.445Z,12.73
2018-12-01T21:41:14.136Z,11.83
2018-12-01T21:43:41.887Z,10.93
2018-12-01T21:46:10.546Z,12.80
2018-12-01T21:48:37.896Z,13.33
2018-12-01T21:51:05.826Z,13.93
2018-12-01T21:53:33.482Z,14.80
2018-12-01T21:56:02.091Z,14.63
2018-12-01T21:58:29.708Z,14.13
2018-12-01T22:00:59.207Z,13.97
2018-12-01T22:03:27.099Z,14.23
2018-12-01T22:05:55.498Z,14.53
2018-12-01T22:08:23.937Z,13.27
2018-12-01T22:10:53.547Z,13.77
2018-12-01T22:13:22.275Z,13.67
2018-12-01T22:15:49.862Z,12.63
2018-12-01T22:18:17.608Z,13.43
2018-12-01T22:20:46.285Z,13.27
2018-12-01T22:23:15.580Z,12.60
2018-12-01T22:25:44.501Z,13.17
2018-12-01T22:28:13.134Z,12.47
2018-12-01T22:30:40.921Z,11.93
2018-12-01T22:33:09.707Z,12.47
2018-12-01T22:35:37.697Z,12.33
2018-12-01T22:38:05.267Z,12.27
2018-12-01T22:40:33.448Z,12.33
2018-12-01T22:43:01.988Z,11.37
2018-12-01T22:45:29.685Z,11.30
2018-12-01T22:47:57.682Z,10.97
2018-12-01T22:50:25.212Z,11.93
2018-12-01T22:52:53.059Z,12.67
2018-12-01T22:55:23.996Z,12.33
2018-12-01T22:57:55.317Z,12.77
2018-12-01T23:00:23.505Z,12.77
2018-12-01T23:02:51.122Z,10.97
2018-12-01T23:05:18.677Z,11.73
2018-12-01T23:07:46.308Z,11.80
2018-12-01T23:10:14.253Z,11.83
2018-12-01T23:12:42.409Z,11.73
2018-12-01T23:15:11.573Z,12.70
2018-12-01T23:17:39.192Z,12.63
2018-12-01T23:20:10.684Z,12.73
2018-12-01T23:22:38.204Z,11.93
2018-12-01T23:25:05.782Z,13.60
2018-12-01T23:27:33.425Z,13.97
2018-12-01T23:30:01.015Z,13.73
2018-12-01T23:32:28.550Z,13.03
2018-12-01T23:34:56.045Z,13.03
2018-12-01T23:37:23.614Z,12.33
2018-12-01T23:39:51.252Z,11.07
2018-12-01T23:42:18.867Z,11.40
2018-12-01T23:44:47.075Z,12.20
2018-12-01T23:47:14.684Z,10.87
2018-12-01T23:49:42.102Z,13.03
2018-12-01T23:52:09.568Z,12.27
2018-12-01T23:54:37.076Z,12.77
2018-12-01T23:57:04.765Z,13.20
2018-12-01T23:59:33.335Z,11.53
